sensor_id;sensor_type;location;lat;lon;timestamp;pressure;altitude;pressure_sealevel;temperature;humidity
58973;BME280;44750;52.040;7.472;2023-06-14T00:03:07;99587.91;;;19.17;74.70
58973;BME280;44750;52.040;7.472;2023-06-14T00:08:07;99577.97;;;19.04;75.36
58973;BME280;44750;52.040;7.472;2023-06-14T00:13:08;99542.16;;;18.87;76.73
58973;BME280;44750;52.040;7.472;2023-06-14T00:18:08;99621.25;;;18.90;77.89
58973;BME280;44750;52.040;7.472;2023-06-14T00:23:09;99636.69;;;18.84;78.52
58973;BME280;44750;52.040;7.472;2023-06-14T00:28:09;99651.47;;;18.83;78.86
58973;BME280;44750;52.040;7.472;2023-06-14T00:33:09;99713.00;;;18.87;79.52
58973;BME280;44750;52.040;7.472;2023-06-14T00:38:09;99683.47;;;18.71;80.32
58973;BME280;44750;52.040;7.472;2023-06-14T00:43:10;99720.63;;;18.67;81.78
58973;BME280;44750;52.040;7.472;2023-06-14T00:48:10;99776.53;;;18.66;81.98
58973;BME280;44750;52.040;7.472;2023-06-14T00:53:20;99730.00;;;18.59;83.05
58973;BME280;44750;52.040;7.472;2023-06-14T00:58:21;99785.13;;;18.51;84.38
58973;BME280;44750;52.040;7.472;2023-06-14T01:03:22;99794.06;;;18.46;85.25
58973;BME280;44750;52.040;7.472;2023-06-14T01:08:28;99782.16;;;18.34;86.08
58973;BME280;44750;52.040;7.472;2023-06-14T01:13:35;99860.13;;;18.38;86.98
58973;BME280;44750;52.040;7.472;2023-06-14T01:18:36;99841.66;;;18.27;88.30
58973;BME280;44750;52.040;7.472;2023-06-14T01:23:36;99869.50;;;18.24;88.72
58973;BME280;44750;52.040;7.472;2023-06-14T01:28:37;99892.94;;;18.19;89.44
58973;BME280;44750;52.040;7.472;2023-06-14T01:33:37;99839.41;;;17.98;90.27
58973;BME280;44750;52.040;7.472;2023-06-14T01:38:38;99908.50;;;17.94;92.28
58973;BME280;44750;52.040;7.472;2023-06-14T01:43:39;99919.50;;;17.80;93.46
58973;BME280;44750;52.040;7.472;2023-06-14T01:48:42;99952.53;;;17.85;94.03
58973;BME280;44750;52.040;7.472;2023-06-14T01:53:42;99975.50;;;17.84;94.95
58973;BME280;44750;52.040;7.472;2023-06-14T01:58:42;99998.91;;;17.74;95.95
58973;BME280;44750;52.040;7.472;2023-06-14T02:03:42;99974.34;;;17.60;96.87
58973;BME280;44750;52.040;7.472;2023-06-14T02:08:42;100012.03;;;17.65;98.43
58973;BME280;44750;52.040;7.472;2023-06-14T02:13:43;100041.28;;;17.64;99.06
58973;BME280;44750;52.040;7.472;2023-06-14T02:18:43;100032.91;;;17.52;99.79
58973;BME280;44750;52.040;7.472;2023-06-14T02:23:43;100030.00;;;17.34;100.00
58973;BME280;44750;52.040;7.472;2023-06-14T02:28:43;100066.00;;;17.31;100.00
58973;BME280;44750;52.040;7.472;2023-06-14T02:33:44;100103.47;;;17.30;100.00
58973;BME280;44750;52.040;7.472;2023-06-14T02:38:44;100076.31;;;17.09;100.00
58973;BME280;44750;52.040;7.472;2023-06-14T02:43:44;100131.44;;;17.12;100.00
58973;BME280;44750;52.040;7.472;2023-06-14T02:48:44;100143.44;;;17.04;100.00
58973;BME280;44750;52.040;7.472;2023-06-14T02:53:44;100156.25;;;16.91;100.00
58973;BME280;44750;52.040;7.472;2023-06-14T02:58:45;100119.41;;;16.66;100.00
58973;BME280;44750;52.040;7.472;2023-06-14T03:03:45;100155.13;;;16.51;100.00
58973;BME280;44750;52.040;7.472;2023-06-14T03:08:45;100189.75;;;16.44;100.00
58973;BME280;44750;52.040;7.472;2023-06-14T03:13:45;100247.75;;;16.46;100.00
58973;BME280;44750;52.040;7.472;2023-06-14T03:18:45;100293.59;;;16.51;100.00
58973;BME280;44750;52.040;7.472;2023-06-14T03:23:46;100349.16;;;16.65;100.00
58973;BME280;44750;52.040;7.472;2023-06-14T03:28:47;100336.28;;;16.59;100.00
58973;BME280;44750;52.040;7.472;2023-06-14T03:33:47;100341.97;;;16.57;100.00
58973;BME280;44750;52.040;7.472;2023-06-14T03:38:47;100381.91;;;16.58;100.00
58973;BME280;44750;52.040;7.472;2023-06-14T03:43:48;100386.03;;;16.47;100.00
58973;BME280;44750;52.040;7.472;2023-06-14T03:48:48;100359.81;;;16.25;100.00
58973;BME280;44750;52.040;7.472;2023-06-14T03:53:48;100425.88;;;16.35;100.00
58973;BME280;44750;52.040;7.472;2023-06-14T03:58:48;100444.34;;;16.33;100.00
58973;BME280;44750;52.040;7.472;2023-06-14T04:03:49;100473.75;;;16.31;100.00
58973;BME280;44750;52.040;7.472;2023-06-14T04:08:49;100549.78;;;16.49;100.00
58973;BME280;44750;52.040;7.472;2023-06-14T04:13:49;100596.78;;;16.87;100.00
58973;BME280;44750;52.040;7.472;2023-06-14T04:18:49;100641.91;;;17.27;100.00
58973;BME280;44750;52.040;7.472;2023-06-14T04:23:49;100647.56;;;17.53;100.00
58973;BME280;44750;52.040;7.472;2023-06-14T04:28:50;100634.16;;;17.65;100.00
58973;BME280;44750;52.040;7.472;2023-06-14T04:33:50;100662.38;;;17.66;100.00
58973;BME280;44750;52.040;7.472;2023-06-14T04:38:51;100704.13;;;18.03;100.00
58973;BME280;44750;52.040;7.472;2023-06-14T04:43:51;100774.50;;;18.44;100.00
58973;BME280;44750;52.040;7.472;2023-06-14T04:48:51;100728.59;;;18.60;100.00
58973;BME280;44750;52.040;7.472;2023-06-14T04:53:51;100787.31;;;18.85;100.00
58973;BME280;44750;52.040;7.472;2023-06-14T04:58:51;100685.59;;;18.74;100.00
58973;BME280;44750;52.040;7.472;2023-06-14T05:03:52;100676.63;;;19.00;100.00
58973;BME280;44750;52.040;7.472;2023-06-14T05:08:52;100738.03;;;19.12;100.00
58973;BME280;44750;52.040;7.472;2023-06-14T05:13:52;100734.25;;;19.27;100.00
58973;BME280;44750;52.040;7.472;2023-06-14T05:18:53;100775.44;;;19.40;100.00
58973;BME280;44750;52.040;7.472;2023-06-14T05:23:53;100813.03;;;19.53;100.00
58973;BME280;44750;52.040;7.472;2023-06-14T05:28:53;100769.94;;;19.47;100.00
58973;BME280;44750;52.040;7.472;2023-06-14T05:33:54;100774.59;;;19.53;100.00
58973;BME280;44750;52.040;7.472;2023-06-14T05:38:54;100763.41;;;19.41;100.00
58973;BME280;44750;52.040;7.472;2023-06-14T05:43:55;100832.25;;;19.60;100.00
58973;BME280;44750;52.040;7.472;2023-06-14T05:48:56;100786.63;;;19.72;100.00
58973;BME280;44750;52.040;7.472;2023-06-14T05:53:56;100784.53;;;19.54;100.00
58973;BME280;44750;52.040;7.472;2023-06-14T05:58:56;100705.97;;;19.46;100.00
58973;BME280;44750;52.040;7.472;2023-06-14T06:03:56;100784.72;;;19.79;100.00
58973;BME280;44750;52.040;7.472;2023-06-14T06:08:57;100917.44;;;20.00;100.00
58973;BME280;44750;52.040;7.472;2023-06-14T06:13:57;100841.16;;;20.02;100.00
58973;BME280;44750;52.040;7.472;2023-06-14T06:18:57;100922.31;;;20.38;100.00
58973;BME280;44750;52.040;7.472;2023-06-14T06:23:57;100755.72;;;20.24;100.00
58973;BME280;44750;52.040;7.472;2023-06-14T06:28:58;100669.44;;;20.31;99.39
58973;BME280;44750;52.040;7.472;2023-06-14T06:33:58;100646.56;;;20.31;97.24
58973;BME280;44750;52.040;7.472;2023-06-14T06:38:58;100902.78;;;20.86;95.47
58973;BME280;44750;52.040;7.472;2023-06-14T06:43:59;100896.28;;;21.19;93.04
58973;BME280;44750;52.040;7.472;2023-06-14T06:48:59;100756.47;;;21.28;89.54
58973;BME280;44750;52.040;7.472;2023-06-14T06:53:59;100607.59;;;21.04;87.15
58973;BME280;44750;52.040;7.472;2023-06-14T06:59:00;100654.66;;;21.21;85.70
58973;BME280;44750;52.040;7.472;2023-06-14T07:04:00;100743.88;;;21.39;85.43
58973;BME280;44750;52.040;7.472;2023-06-14T07:09:00;100735.56;;;21.46;85.10
58973;BME280;44750;52.040;7.472;2023-06-14T07:14:01;100581.22;;;21.59;78.78
58973;BME280;44750;52.040;7.472;2023-06-14T07:19:02;100683.88;;;21.92;77.13
58973;BME280;44750;52.040;7.472;2023-06-14T07:24:03;100397.31;;;21.61;72.71
58973;BME280;44750;52.040;7.472;2023-06-14T07:29:03;100381.44;;;21.45;71.30
58973;BME280;44750;52.040;7.472;2023-06-14T07:34:03;100480.56;;;21.63;71.02
58973;BME280;44750;52.040;7.472;2023-06-14T07:39:04;100704.63;;;22.31;70.42
58973;BME280;44750;52.040;7.472;2023-06-14T07:44:04;100602.22;;;22.28;70.32
58973;BME280;44750;52.040;7.472;2023-06-14T07:49:04;100618.63;;;22.53;67.38
58973;BME280;44750;52.040;7.472;2023-06-14T07:54:05;100422.84;;;22.11;69.07
58973;BME280;44750;52.040;7.472;2023-06-14T07:59:05;100483.59;;;22.04;71.19
58973;BME280;44750;52.040;7.472;2023-06-14T08:04:05;100514.53;;;22.06;71.44
58973;BME280;44750;52.040;7.472;2023-06-14T08:09:05;100580.81;;;22.42;69.59
58973;BME280;44750;52.040;7.472;2023-06-14T08:14:06;100318.44;;;21.91;68.91
58973;BME280;44750;52.040;7.472;2023-06-14T08:19:15;100503.50;;;22.06;70.91
58973;BME280;44750;52.040;7.472;2023-06-14T08:24:15;100628.19;;;22.38;70.28
58973;BME280;44750;52.040;7.472;2023-06-14T08:29:15;100516.25;;;22.31;68.79
58973;BME280;44750;52.040;7.472;2023-06-14T08:34:15;100573.16;;;22.44;68.70
58973;BME280;44750;52.040;7.472;2023-06-14T08:39:16;100512.50;;;22.44;68.05
58973;BME280;44750;52.040;7.472;2023-06-14T08:44:16;100397.34;;;22.27;67.46
58973;BME280;44750;52.040;7.472;2023-06-14T08:49:17;100575.00;;;22.62;68.50
58973;BME280;44750;52.040;7.472;2023-06-14T08:54:17;100577.44;;;22.70;67.96
58973;BME280;44750;52.040;7.472;2023-06-14T08:59:17;100602.97;;;22.77;67.90
58973;BME280;44750;52.040;7.472;2023-06-14T09:04:18;100534.84;;;22.66;66.57
58973;BME280;44750;52.040;7.472;2023-06-14T09:09:20;100655.19;;;23.33;63.69
58973;BME280;44750;52.040;7.472;2023-06-14T09:14:24;100322.16;;;22.79;62.14
58973;BME280;44750;52.040;7.472;2023-06-14T09:19:24;100610.03;;;23.15;64.00
58973;BME280;44750;52.040;7.472;2023-06-14T09:24:24;100563.06;;;22.92;66.32
58973;BME280;44750;52.040;7.472;2023-06-14T09:29:25;100721.09;;;23.41;63.98
58973;BME280;44750;52.040;7.472;2023-06-14T09:34:25;100253.00;;;22.33;66.48
58973;BME280;44750;52.040;7.472;2023-06-14T09:39:25;100604.22;;;22.93;66.25
58973;BME280;44750;52.040;7.472;2023-06-14T09:44:26;100465.13;;;23.06;62.74
58973;BME280;44750;52.040;7.472;2023-06-14T09:49:26;100724.34;;;23.38;64.03
58973;BME280;44750;52.040;7.472;2023-06-14T09:54:27;100412.91;;;23.16;62.87
58973;BME280;44750;52.040;7.472;2023-06-14T09:59:30;100751.63;;;23.58;64.49
58973;BME280;44750;52.040;7.472;2023-06-14T10:04:31;100800.34;;;24.07;61.40
58973;BME280;44750;52.040;7.472;2023-06-14T10:09:33;100604.94;;;23.60;63.48
58973;BME280;44750;52.040;7.472;2023-06-14T10:14:34;100817.53;;;24.09;62.96
58973;BME280;44750;52.040;7.472;2023-06-14T10:19:46;100829.56;;;24.38;60.86
58973;BME280;44750;52.040;7.472;2023-06-14T10:24:48;100593.31;;;24.10;60.33
58973;BME280;44750;52.040;7.472;2023-06-14T10:34:56;100898.44;;;24.87;59.58
58973;BME280;44750;52.040;7.472;2023-06-14T10:39:57;100783.19;;;24.69;58.82
58973;BME280;44750;52.040;7.472;2023-06-14T10:44:58;100599.94;;;24.38;60.59
58973;BME280;44750;52.040;7.472;2023-06-14T11:00:06;100643.78;;;24.17;62.39
58973;BME280;44750;52.040;7.472;2023-06-14T11:05:08;100589.69;;;24.38;58.78
58973;BME280;44750;52.040;7.472;2023-06-14T11:15:31;100858.47;;;25.24;58.77
58973;BME280;44750;52.040;7.472;2023-06-14T11:20:34;100515.28;;;24.54;58.35
58973;BME280;44750;52.040;7.472;2023-06-14T11:25:35;100515.06;;;24.73;56.94
58973;BME280;44750;52.040;7.472;2023-06-14T11:30:35;100781.13;;;25.34;56.29
58973;BME280;44750;52.040;7.472;2023-06-14T11:35:35;100411.16;;;24.31;60.14
58973;BME280;44750;52.040;7.472;2023-06-14T11:40:38;100748.06;;;25.15;58.52
58973;BME280;44750;52.040;7.472;2023-06-14T11:45:38;100400.59;;;24.45;59.32
58973;BME280;44750;52.040;7.472;2023-06-14T11:50:38;100425.81;;;24.14;62.56
58973;BME280;44750;52.040;7.472;2023-06-14T11:55:39;100607.06;;;24.80;59.89
58973;BME280;44750;52.040;7.472;2023-06-14T12:00:39;100680.66;;;25.10;58.48
58973;BME280;44750;52.040;7.472;2023-06-14T12:05:40;100503.38;;;24.87;57.25
58973;BME280;44750;52.040;7.472;2023-06-14T12:10:40;100726.06;;;25.26;57.98
58973;BME280;44750;52.040;7.472;2023-06-14T12:15:41;100447.41;;;24.85;57.37
58973;BME280;44750;52.040;7.472;2023-06-14T12:20:41;100655.97;;;25.08;60.20
58973;BME280;44750;52.040;7.472;2023-06-14T12:25:41;100531.66;;;25.29;55.96
58973;BME280;44750;52.040;7.472;2023-06-14T12:30:41;100652.72;;;25.45;55.50
58973;BME280;44750;52.040;7.472;2023-06-14T12:35:42;100437.78;;;25.10;56.76
58973;BME280;44750;52.040;7.472;2023-06-14T12:40:42;100855.81;;;25.92;55.11
58973;BME280;44750;52.040;7.472;2023-06-14T12:45:42;100742.69;;;25.94;53.87
58973;BME280;44750;52.040;7.472;2023-06-14T12:50:42;100659.84;;;26.19;51.84
58973;BME280;44750;52.040;7.472;2023-06-14T12:55:43;100292.56;;;25.28;54.56
58973;BME280;44750;52.040;7.472;2023-06-14T13:00:43;100626.38;;;25.82;53.75
58973;BME280;44750;52.040;7.472;2023-06-14T13:05:43;100494.56;;;25.74;53.92
58973;BME280;44750;52.040;7.472;2023-06-14T13:10:43;100280.13;;;25.31;54.33
58973;BME280;44750;52.040;7.472;2023-06-14T13:15:43;100442.72;;;25.47;54.91
58973;BME280;44750;52.040;7.472;2023-06-14T13:20:46;100665.00;;;25.89;53.37
58973;BME280;44750;52.040;7.472;2023-06-14T13:25:46;100244.47;;;25.34;54.53
58973;BME280;44750;52.040;7.472;2023-06-14T13:30:46;100542.16;;;25.66;54.52
58973;BME280;44750;52.040;7.472;2023-06-14T13:35:46;100526.56;;;25.82;52.36
58973;BME280;44750;52.040;7.472;2023-06-14T13:40:47;100384.41;;;25.92;50.62
58973;BME280;44750;52.040;7.472;2023-06-14T13:45:48;100521.47;;;26.01;52.32
58973;BME280;44750;52.040;7.472;2023-06-14T13:50:49;100311.03;;;25.72;51.52
58973;BME280;44750;52.040;7.472;2023-06-14T13:55:49;100306.56;;;25.71;51.71
58973;BME280;44750;52.040;7.472;2023-06-14T14:00:49;100525.81;;;26.14;52.30
58973;BME280;44750;52.040;7.472;2023-06-14T14:05:49;100590.09;;;26.33;51.77
58973;BME280;44750;52.040;7.472;2023-06-14T14:10:49;100246.22;;;25.78;53.32
58973;BME280;44750;52.040;7.472;2023-06-14T14:15:50;100316.53;;;25.67;54.15
58973;BME280;44750;52.040;7.472;2023-06-14T14:20:50;100486.66;;;26.10;51.85
58973;BME280;44750;52.040;7.472;2023-06-14T14:25:50;100793.38;;;26.90;50.34
58973;BME280;44750;52.040;7.472;2023-06-14T14:30:51;100257.44;;;25.99;52.52
58973;BME280;44750;52.040;7.472;2023-06-14T14:35:51;100365.75;;;25.87;53.21
58973;BME280;44750;52.040;7.472;2023-06-14T14:40:51;100297.25;;;25.82;54.59
58973;BME280;44750;52.040;7.472;2023-06-14T14:45:51;100044.25;;;25.07;57.64
58973;BME280;44750;52.040;7.472;2023-06-14T14:50:51;100198.72;;;25.32;56.93
58973;BME280;44750;52.040;7.472;2023-06-14T14:55:52;100296.38;;;25.44;57.97
58973;BME280;44750;52.040;7.472;2023-06-14T15:00:52;100707.91;;;26.25;56.62
58973;BME280;44750;52.040;7.472;2023-06-14T15:05:52;100348.03;;;25.88;54.33
58973;BME280;44750;52.040;7.472;2023-06-14T15:10:52;100529.31;;;26.31;53.70
58973;BME280;44750;52.040;7.472;2023-06-14T15:15:53;100536.28;;;26.34;53.54
58973;BME280;44750;52.040;7.472;2023-06-14T15:20:53;100403.31;;;26.32;52.40
58973;BME280;44750;52.040;7.472;2023-06-14T15:25:53;100357.25;;;26.26;52.66
58973;BME280;44750;52.040;7.472;2023-06-14T15:30:54;100380.22;;;26.22;54.06
58973;BME280;44750;52.040;7.472;2023-06-14T15:35:54;99961.78;;;25.09;57.02
58973;BME280;44750;52.040;7.472;2023-06-14T15:40:55;99912.00;;;24.76;57.97
58973;BME280;44750;52.040;7.472;2023-06-14T15:45:55;100248.13;;;25.40;56.01
58973;BME280;44750;52.040;7.472;2023-06-14T15:50:55;100684.50;;;26.38;54.82
58973;BME280;44750;52.040;7.472;2023-06-14T15:55:55;100278.25;;;25.64;57.90
58973;BME280;44750;52.040;7.472;2023-06-14T16:00:56;99855.81;;;24.70;58.94
58973;BME280;44750;52.040;7.472;2023-06-14T16:05:56;100314.19;;;25.26;59.04
58973;BME280;44750;52.040;7.472;2023-06-14T16:10:56;100386.94;;;25.66;57.39
58973;BME280;44750;52.040;7.472;2023-06-14T16:15:56;100449.38;;;26.01;55.03
58973;BME280;44750;52.040;7.472;2023-06-14T16:20:57;100258.13;;;25.79;54.40
58973;BME280;44750;52.040;7.472;2023-06-14T16:25:57;100256.47;;;25.78;54.56
58973;BME280;44750;52.040;7.472;2023-06-14T16:30:57;100558.47;;;26.34;53.57
58973;BME280;44750;52.040;7.472;2023-06-14T16:35:57;100156.03;;;25.65;54.37
58973;BME280;44750;52.040;7.472;2023-06-14T16:40:58;100452.22;;;26.06;54.97
58973;BME280;44750;52.040;7.472;2023-06-14T16:45:59;100022.03;;;25.34;55.72
58973;BME280;44750;52.040;7.472;2023-06-14T16:50:59;100282.06;;;25.52;57.92
58973;BME280;44750;52.040;7.472;2023-06-14T16:55:59;100378.97;;;25.75;57.77
58973;BME280;44750;52.040;7.472;2023-06-14T17:01:00;100336.66;;;25.84;55.48
58973;BME280;44750;52.040;7.472;2023-06-14T17:06:00;100141.25;;;25.49;54.89
58973;BME280;44750;52.040;7.472;2023-06-14T17:11:00;100275.81;;;25.67;55.39
58973;BME280;44750;52.040;7.472;2023-06-14T17:16:02;100035.78;;;25.24;56.30
58973;BME280;44750;52.040;7.472;2023-06-14T17:21:02;100077.84;;;25.15;57.44
58973;BME280;44750;52.040;7.472;2023-06-14T17:26:02;100222.91;;;25.42;56.51
58973;BME280;44750;52.040;7.472;2023-06-14T17:31:03;100242.31;;;25.42;56.95
58973;BME280;44750;52.040;7.472;2023-06-14T17:36:03;100355.03;;;25.63;57.01
58973;BME280;44750;52.040;7.472;2023-06-14T17:41:04;100326.53;;;25.68;56.90
58973;BME280;44750;52.040;7.472;2023-06-14T17:46:04;100085.00;;;25.11;57.75
58973;BME280;44750;52.040;7.472;2023-06-14T17:51:06;100114.13;;;25.14;58.31
58973;BME280;44750;52.040;7.472;2023-06-14T17:56:06;100051.44;;;25.02;58.79
58973;BME280;44750;52.040;7.472;2023-06-14T18:01:06;100196.00;;;25.10;60.47
58973;BME280;44750;52.040;7.472;2023-06-14T18:06:06;100101.91;;;24.55;64.29
58973;BME280;44750;52.040;7.472;2023-06-14T18:11:06;100059.94;;;24.36;65.73
58973;BME280;44750;52.040;7.472;2023-06-14T18:16:07;100107.84;;;24.14;65.60
58973;BME280;44750;52.040;7.472;2023-06-14T18:21:07;100157.75;;;24.25;66.53
58973;BME280;44750;52.040;7.472;2023-06-14T18:26:07;100160.44;;;24.19;66.30
58973;BME280;44750;52.040;7.472;2023-06-14T18:31:07;100161.66;;;24.07;67.34
58973;BME280;44750;52.040;7.472;2023-06-14T18:36:07;100168.44;;;23.99;69.04
58973;BME280;44750;52.040;7.472;2023-06-14T18:41:08;100266.38;;;23.86;71.83
58973;BME280;44750;52.040;7.472;2023-06-14T18:46:11;100301.97;;;23.82;72.12
58973;BME280;44750;52.040;7.472;2023-06-14T18:51:11;100331.78;;;23.80;73.25
58973;BME280;44750;52.040;7.472;2023-06-14T18:56:12;100328.94;;;23.75;73.66
58973;BME280;44750;52.040;7.472;2023-06-14T19:01:12;100307.13;;;23.62;74.11
58973;BME280;44750;52.040;7.472;2023-06-14T19:06:12;100325.00;;;23.54;74.55
58973;BME280;44750;52.040;7.472;2023-06-14T19:11:12;100351.09;;;23.46;76.38
58973;BME280;44750;52.040;7.472;2023-06-14T19:16:14;100371.28;;;23.35;76.88
58973;BME280;44750;52.040;7.472;2023-06-14T19:21:14;100378.50;;;23.36;77.38
58973;BME280;44750;52.040;7.472;2023-06-14T19:26:15;100335.38;;;23.06;79.99
58973;BME280;44750;52.040;7.472;2023-06-14T19:31:15;100458.75;;;23.17;80.93
58973;BME280;44750;52.040;7.472;2023-06-14T19:36:15;100467.91;;;23.18;81.24
58973;BME280;44750;52.040;7.472;2023-06-14T19:41:16;100410.88;;;23.00;81.69
58973;BME280;44750;52.040;7.472;2023-06-14T19:46:17;100442.69;;;22.91;82.79
58973;BME280;44750;52.040;7.472;2023-06-14T19:51:17;100464.66;;;22.85;83.54
58973;BME280;44750;52.040;7.472;2023-06-14T19:56:17;100467.78;;;22.77;84.25
58973;BME280;44750;52.040;7.472;2023-06-14T20:01:18;100498.00;;;22.72;84.73
58973;BME280;44750;52.040;7.472;2023-06-14T20:06:18;100515.28;;;22.67;84.94
58973;BME280;44750;52.040;7.472;2023-06-14T20:11:18;100532.78;;;22.61;85.51
58973;BME280;44750;52.040;7.472;2023-06-14T20:16:21;100565.50;;;22.58;86.49
58973;BME280;44750;52.040;7.472;2023-06-14T20:21:21;100546.66;;;22.43;87.57
58973;BME280;44750;52.040;7.472;2023-06-14T20:26:22;100574.84;;;22.45;88.45
58973;BME280;44750;52.040;7.472;2023-06-14T20:31:23;100575.84;;;22.32;89.44
58973;BME280;44750;52.040;7.472;2023-06-14T20:36:23;100571.88;;;22.28;90.32
58973;BME280;44750;52.040;7.472;2023-06-14T20:41:23;100567.38;;;22.15;91.17
58973;BME280;44750;52.040;7.472;2023-06-14T20:46:24;100546.47;;;21.95;92.39
58973;BME280;44750;52.040;7.472;2023-06-14T20:51:24;100610.38;;;22.04;92.61
58973;BME280;44750;52.040;7.472;2023-06-14T20:56:24;100589.56;;;21.90;93.51
58973;BME280;44750;52.040;7.472;2023-06-14T21:01:24;100596.28;;;21.75;95.04
58973;BME280;44750;52.040;7.472;2023-06-14T21:06:24;100615.66;;;21.68;95.94
58973;BME280;44750;52.040;7.472;2023-06-14T21:11:25;100621.13;;;21.57;97.64
58973;BME280;44750;52.040;7.472;2023-06-14T21:16:25;100644.47;;;21.47;98.82
58973;BME280;44750;52.040;7.472;2023-06-14T21:21:25;100663.13;;;21.45;99.63
58973;BME280;44750;52.040;7.472;2023-06-14T21:26:25;100638.47;;;21.32;100.00
58973;BME280;44750;52.040;7.472;2023-06-14T21:31:25;100675.97;;;21.33;100.00
58973;BME280;44750;52.040;7.472;2023-06-14T21:36:26;100706.66;;;21.30;100.00
58973;BME280;44750;52.040;7.472;2023-06-14T21:41:26;100703.97;;;21.23;100.00
58973;BME280;44750;52.040;7.472;2023-06-14T21:46:29;100693.25;;;21.15;100.00
58973;BME280;44750;52.040;7.472;2023-06-14T21:51:29;100675.84;;;20.96;100.00
58973;BME280;44750;52.040;7.472;2023-06-14T21:56:30;100696.59;;;20.92;100.00
58973;BME280;44750;52.040;7.472;2023-06-14T22:01:30;100737.88;;;20.92;100.00
58973;BME280;44750;52.040;7.472;2023-06-14T22:06:30;100739.19;;;20.82;100.00
58973;BME280;44750;52.040;7.472;2023-06-14T22:11:30;100748.50;;;20.81;100.00
58973;BME280;44750;52.040;7.472;2023-06-14T22:16:31;100746.25;;;20.71;100.00
58973;BME280;44750;52.040;7.472;2023-06-14T22:21:31;100735.50;;;20.57;100.00
58973;BME280;44750;52.040;7.472;2023-06-14T22:26:41;100799.56;;;20.64;100.00
58973;BME280;44750;52.040;7.472;2023-06-14T22:31:44;100767.44;;;20.51;100.00
58973;BME280;44750;52.040;7.472;2023-06-14T22:36:45;100797.72;;;20.44;100.00
58973;BME280;44750;52.040;7.472;2023-06-14T22:41:45;100781.50;;;20.29;100.00
58973;BME280;44750;52.040;7.472;2023-06-14T22:46:45;100791.25;;;20.18;100.00
58973;BME280;44750;52.040;7.472;2023-06-14T22:51:46;100784.09;;;20.04;100.00
58973;BME280;44750;52.040;7.472;2023-06-14T22:56:46;100849.81;;;20.12;100.00
58973;BME280;44750;52.040;7.472;2023-06-14T23:01:46;100830.16;;;20.09;100.00
58973;BME280;44750;52.040;7.472;2023-06-14T23:06:46;100848.34;;;20.03;100.00
58973;BME280;44750;52.040;7.472;2023-06-14T23:11:47;100889.75;;;20.08;100.00
58973;BME280;44750;52.040;7.472;2023-06-14T23:16:47;100891.91;;;20.06;100.00
58973;BME280;44750;52.040;7.472;2023-06-14T23:21:47;100896.53;;;19.99;100.00
58973;BME280;44750;52.040;7.472;2023-06-14T23:26:47;100891.03;;;19.92;100.00
58973;BME280;44750;52.040;7.472;2023-06-14T23:31:47;100815.34;;;19.63;100.00
58973;BME280;44750;52.040;7.472;2023-06-14T23:36:48;100808.56;;;19.25;100.00
58973;BME280;44750;52.040;7.472;2023-06-14T23:41:48;100819.03;;;18.95;100.00
58973;BME280;44750;52.040;7.472;2023-06-14T23:46:48;100876.44;;;19.03;100.00
58973;BME280;44750;52.040;7.472;2023-06-14T23:51:49;100888.69;;;19.07;100.00
58973;BME280;44750;52.040;7.472;2023-06-14T23:56:49;100900.97;;;19.18;100.00
